Flight Track Log - Related Links

Times and Time Zones

All times are in EDT time to prevent confusion due to time zone crossing. See the N401SM flight status page for this flight to view local times or setup timezone preferences in your user account.


Time Position Orientation Groundspeed Altitude Reporting Facility
EDT Latitude Longitude Course Direction KTS MPH feet Rate Location/Type
Tue 03:55:28 PM 31.2228 -81.4447 316° Northwest 188 216 3,800  Level Jacksonville Center
Tue 03:56:29 PM 31.2567 -81.4781 320° Northwest 158 182 5,400 1,650 Climbing Jacksonville Center
Tue 03:57:00 PM 31.4234 -81.6703 320° Northwest  Level Estimated
Tue 03:57:28 PM 31.2883 -81.5117 318° Northwest 158 182 7,100  Level Jacksonville Center
Tue 03:58:29 PM 31.3222 -81.5453 320° Northwest 163 188 8,700 1,600 Climbing Jacksonville Center
Tue 03:59:28 PM 31.3622 -81.5883 317° Northwest 169 194 10,300 1,664 Climbing Jacksonville Center
Tue 04:00:28 PM 31.3981 -81.6244 319° Northwest 176 203 12,000 1,550 Climbing Jacksonville Center
Tue 04:01:28 PM 31.4381 -81.6628 321° Northwest 176 203 13,400 1,388 Climbing Jacksonville Center
Tue 04:02:29 PM 31.4697 -81.6967 318° Northwest 176 203 14,800 1,350 Climbing Jacksonville Center
Tue 04:03:28 PM 31.5078 -81.7350 319° Northwest 176 203 16,100 1,350 Climbing Jacksonville Center
Tue 04:04:29 PM 31.5500 -81.7808 317° Northwest 176 203 17,500 1,300 Climbing Jacksonville Center
Tue 04:05:28 PM 31.5919 -81.8194 322° Northwest 186 214 18,700 1,109 Climbing Jacksonville Center
Tue 04:06:28 PM 31.6300 -81.8628 316° Northwest 191 220 19,700 694 Climbing Jacksonville Center
Tue 04:07:29 PM 31.6700 -81.9039 319° Northwest 196 226 20,100 200 Climbing Jacksonville Center
Tue 04:08:28 PM 31.7183 -81.9522 320° Northwest 219 252 20,100  Level Jacksonville Center
Tue 04:09:29 PM 31.7753 -82.0128 318° Northwest 242 278 20,100 -50 Level Jacksonville Center
Tue 04:10:28 PM 31.8278 -82.0636 321° Northwest 242 278 20,000 -50 Descending Jacksonville Center
Tue 04:11:28 PM 31.8803 -82.1194 318° Northwest 242 278 20,000  Level Jacksonville Center
Tue 04:12:28 PM 31.9286 -82.1681 320° Northwest 247 284 20,000  Level Jacksonville Center
Tue 04:13:28 PM 31.9872 -82.2289 319° Northwest 247 284 20,000  Level Jacksonville Center
Tue 04:14:28 PM 32.0397 -82.2847 318° Northwest 247 284 20,000  Level Jacksonville Center
Tue 04:17:33 PM 32.1975 -82.4483 319° Northwest 243 280 20,000  Level Atlanta Center
Tue 04:18:33 PM 32.2547 -82.5086 318° Northwest 243 280 20,000  Level Atlanta Center
Tue 04:19:33 PM 32.3075 -82.5619 320° Northwest 247 284 20,000  Level Atlanta Center
Tue 04:20:33 PM 32.3603 -82.6175 318° Northwest 230 265 20,000  Level Atlanta Center
Tue 04:21:33 PM 32.4111 -82.6708 318° Northwest 241 277 20,000  Level Atlanta Center
Tue 04:22:33 PM 32.4617 -82.7242 318° Northwest 246 283 20,000  Level Atlanta Center
Tue 04:23:33 PM 32.5144 -82.7803 318° Northwest 251 289 20,000 -500 Level Atlanta Center
Tue 04:24:33 PM 32.5736 -82.8408 319° Northwest 250 288 19,000 -1,000 Descending Atlanta Center
Tue 04:25:33 PM 32.6347 -82.9017 320° Northwest 263 303 18,000 -950 Descending Atlanta Center
Tue 04:26:33 PM 32.6872 -82.9553 319° Northwest 272 313 17,100 -900 Descending Atlanta Center
Tue 04:27:33 PM 32.7506 -83.0214 319° Northwest 284 327 16,200 -1,000 Descending Atlanta Center
Tue 04:28:33 PM 32.8117 -83.0822 320° Northwest 284 327 15,100 -1,000 Descending Atlanta Center
Tue 04:29:33 PM 32.8725 -83.1411 321° Northwest 278 320 14,200 -950 Descending Atlanta Center
Tue 04:30:33 PM 32.9294 -83.1997 319° Northwest 278 320 13,200 -950 Descending Atlanta Center
Tue 04:31:33 PM 32.9839 -83.2564 319° Northwest 284 327 12,300 -950 Descending Atlanta Center
Tue 04:32:33 PM 33.0428 -83.3153 320° Northwest 284 327 11,300 -1,000 Descending Atlanta Center
Tue 04:33:33 PM 33.1058 -83.3792 320° Northwest 278 320 10,300 -1,000 Descending Atlanta Center
Tue 04:34:33 PM 33.1644 -83.4383 320° Northwest 273 314 9,300 -1,307 Descending Atlanta Center
Tue 04:36:55 PM 33.2833 -83.5667 318° Northwest 234 269 5,900 -1,010 Descending Atlanta TRACON
Tue 04:37:55 PM 33.3333 -83.6167 320° Northwest 231 266 5,900  Level Atlanta TRACON
Tue 04:38:55 PM 33.3833 -83.6667 320° Northwest 236 272 5,900 -400 Level Atlanta TRACON
Tue 04:39:55 PM 33.4500 -83.7000 337° Northwest 240 276 5,100 -900 Descending Atlanta TRACON
Tue 04:40:55 PM 33.5167 -83.7333 337° Northwest 252 290 4,100 -550 Descending Atlanta TRACON
Tue 04:41:55 PM 33.5667 -83.7833 320° Northwest 248 285 4,000 -53 Descending Atlanta TRACON
Tue 04:42:49 PM 33.6167 -83.8167 331° Northwest 239 275 4,000  Level Atlanta TRACON
Tue 04:43:49 PM 33.6667 -83.8667 320° Northwest 239 275 4,000  Level Atlanta TRACON
Tue 04:44:49 PM 33.7333 -83.9000 337° Northwest 241 277 4,000  Level Atlanta TRACON
Tue 04:45:43 PM 33.7833 -83.9500 320° Northwest 238 274 4,000  Level Atlanta TRACON
Tue 04:46:43 PM 33.8333 -83.9833 331° Northwest 237 273 4,000  Level Atlanta TRACON
Tue 04:47:43 PM 33.8833 -84.0333 320° Northwest 235 270 4,000  Level Atlanta TRACON
Tue 04:48:43 PM 33.9500 -84.0833 328° Northwest 239 275 4,000 -50 Level Atlanta TRACON
Tue 04:49:43 PM 34.0000 -84.1167 331° Northwest 203 234 3,900  Descending Atlanta TRACON
Tue 04:50:43 PM 34.0500 -84.1500 331° Northwest 196 226 4,000 -50 Climbing Atlanta TRACON
Tue 04:51:43 PM 34.0500 -84.2167 270° West 192 221 3,800 -526 Descending Atlanta TRACON
Tue 04:52:37 PM 34.0167 -84.2333 203° Southwest 176 203 3,000 -556 Descending Atlanta TRACON
Tue 04:53:31 PM 33.9667 -84.2500 195° South 164 189 2,800 -526 Descending Atlanta TRACON
Tue 04:54:31 PM 33.9333 -84.2833 220° Southwest 157 181 2,000 -750 Descending Atlanta TRACON
Tue 04:55:31 PM 33.9000 -84.3000 203° Southwest 114 131 1,300 -700 Descending Atlanta TRACON
Tue 04:57:00 PM 33.8756 -84.3020 239° Southwest  Level Estimated

Login

Don't have an account? Register now (free) for customized features, flight alerts, and more!